sensor_id;sensor_type;location;lat;lon;timestamp;pressure;altitude;pressure_sealevel;temperature;humidity
6464;BME280;3265;42.694;23.282;2024-01-16T00:06:19;72349.81;;;-143.21;70.57
6464;BME280;3265;42.694;23.282;2024-01-16T00:25:20;72361.72;;;-143.21;70.65
6464;BME280;3265;42.694;23.282;2024-01-16T00:28:20;72361.72;;;-143.21;70.98
6464;BME280;3265;42.694;23.282;2024-01-16T00:31:18;72357.75;;;-143.21;70.52
6464;BME280;3265;42.694;23.282;2024-01-16T00:37:20;72363.69;;;-143.21;70.79
6464;BME280;3265;42.694;23.282;2024-01-16T00:53:22;72355.75;;;-143.21;71.13
6464;BME280;3265;42.694;23.282;2024-01-16T00:56:19;72351.78;;;-143.21;71.69
6464;BME280;3265;42.694;23.282;2024-01-16T01:02:25;72337.91;;;-143.21;71.44
6464;BME280;3265;42.694;23.282;2024-01-16T01:05:19;72345.84;;;-143.21;71.92
6464;BME280;3265;42.694;23.282;2024-01-16T01:15:19;72371.63;;;-143.21;72.62
6464;BME280;3265;42.694;23.282;2024-01-16T01:21:19;72355.75;;;-143.21;72.57
6464;BME280;3265;42.694;23.282;2024-01-16T01:50:21;72349.81;;;-143.21;73.77
6464;BME280;3265;42.694;23.282;2024-01-16T02:14:19;72308.16;;;-143.21;73.90
6464;BME280;3265;42.694;23.282;2024-01-16T02:54:52;72397.41;;;-143.21;77.58
6464;BME280;3265;42.694;23.282;2024-01-16T03:09:17;72369.66;;;-143.21;85.20
6464;BME280;3265;42.694;23.282;2024-01-16T03:21:50;72369.66;;;-143.21;88.22
6464;BME280;3265;42.694;23.282;2024-01-16T03:24:21;72385.50;;;-143.21;88.35
6464;BME280;3265;42.694;23.282;2024-01-16T03:27:17;72397.41;;;-143.21;88.43
6464;BME280;3265;42.694;23.282;2024-01-16T04:11:41;72645.31;;;-143.21;85.96
6464;BME280;3265;42.694;23.282;2024-01-16T04:14:22;72651.28;;;-143.21;86.00
6464;BME280;3265;42.694;23.282;2024-01-16T04:17:17;72667.13;;;-143.21;86.04
6464;BME280;3265;42.694;23.282;2024-01-16T04:40:20;72732.59;;;-143.21;85.20
6464;BME280;3265;42.694;23.282;2024-01-16T04:46:18;72782.16;;;-143.21;85.88
6464;BME280;3265;42.694;23.282;2024-01-16T04:51:51;72805.97;;;-143.21;85.82
6464;BME280;3265;42.694;23.282;2024-01-16T04:54:31;72796.06;;;-143.21;85.49
6464;BME280;3265;42.694;23.282;2024-01-16T04:57:00;72805.97;;;-143.21;85.01
6464;BME280;3265;42.694;23.282;2024-01-16T04:59:27;72805.97;;;-143.21;84.38
6464;BME280;3265;42.694;23.282;2024-01-16T05:01:56;72809.94;;;-143.21;83.92
6464;BME280;3265;42.694;23.282;2024-01-16T05:04:23;72825.81;;;-143.21;83.98
6464;BME280;3265;42.694;23.282;2024-01-16T05:06:51;72831.75;;;-143.21;84.03
6464;BME280;3265;42.694;23.282;2024-01-16T05:09:21;72831.75;;;-143.21;83.54
6464;BME280;3265;42.694;23.282;2024-01-16T05:11:48;72851.59;;;-143.21;83.75
6464;BME280;3265;42.694;23.282;2024-01-16T05:14:17;72861.50;;;-143.21;84.16
6464;BME280;3265;42.694;23.282;2024-01-16T05:16:55;72877.38;;;-143.21;84.43
6464;BME280;3265;42.694;23.282;2024-01-16T05:19:41;72881.34;;;-143.21;84.17
6464;BME280;3265;42.694;23.282;2024-01-16T05:22:27;72895.22;;;-143.21;84.02
6464;BME280;3265;42.694;23.282;2024-01-16T05:24:54;72903.16;;;-143.21;83.62
6464;BME280;3265;42.694;23.282;2024-01-16T05:27:21;72909.13;;;-143.21;83.63
6464;BME280;3265;42.694;23.282;2024-01-16T05:30:03;72921.00;;;-143.21;83.09
6464;BME280;3265;42.694;23.282;2024-01-16T05:34:56;72921.00;;;-143.21;82.07
6464;BME280;3265;42.694;23.282;2024-01-16T05:37:29;72913.09;;;-143.21;81.33
6464;BME280;3265;42.694;23.282;2024-01-16T05:40:14;72940.84;;;-143.21;81.33
6464;BME280;3265;42.694;23.282;2024-01-16T05:42:47;72952.75;;;-143.21;81.15
6464;BME280;3265;42.694;23.282;2024-01-16T05:45:18;72950.78;;;-143.21;80.93
6464;BME280;3265;42.694;23.282;2024-01-16T05:47:59;72950.78;;;-143.21;79.78
6464;BME280;3265;42.694;23.282;2024-01-16T05:50:47;72970.59;;;-143.21;79.66
6464;BME280;3265;42.694;23.282;2024-01-16T05:53:18;72972.59;;;-143.21;79.72
6464;BME280;3265;42.694;23.282;2024-01-16T05:58:57;72978.53;;;-143.21;79.95
6464;BME280;3265;42.694;23.282;2024-01-16T06:01:33;72994.41;;;-143.21;80.16
6464;BME280;3265;42.694;23.282;2024-01-16T06:04:26;72988.47;;;-143.21;80.26
6464;BME280;3265;42.694;23.282;2024-01-16T06:07:51;72998.38;;;-143.21;80.74
6464;BME280;3265;42.694;23.282;2024-01-16T06:17:24;73016.22;;;-143.21;80.31
6464;BME280;3265;42.694;23.282;2024-01-16T06:24:14;73032.09;;;-143.21;79.70
6464;BME280;3265;42.694;23.282;2024-01-16T07:03:22;73127.31;;;-143.21;76.77
6464;BME280;3265;42.694;23.282;2024-01-16T07:06:18;73113.41;;;-143.21;76.76
6464;BME280;3265;42.694;23.282;2024-01-16T07:37:21;73212.59;;;-143.21;76.87
6464;BME280;3265;42.694;23.282;2024-01-16T07:43:25;73224.50;;;-143.21;77.17
6464;BME280;3265;42.694;23.282;2024-01-16T07:49:22;73238.38;;;-143.21;77.32
6464;BME280;3265;42.694;23.282;2024-01-16T08:01:19;73272.13;;;-143.21;77.62
6464;BME280;3265;42.694;23.282;2024-01-16T08:04:22;73258.22;;;-143.21;77.95
6464;BME280;3265;42.694;23.282;2024-01-16T08:11:18;73260.22;;;-143.21;77.28
6464;BME280;3265;42.694;23.282;2024-01-16T08:17:19;73252.28;;;-143.21;77.01
6464;BME280;3265;42.694;23.282;2024-01-16T08:23:29;73258.22;;;-143.21;76.04
6464;BME280;3265;42.694;23.282;2024-01-16T08:26:21;73246.31;;;-143.21;76.52
6464;BME280;3265;42.694;23.282;2024-01-16T08:28:51;73250.28;;;-143.21;75.18
6464;BME280;3265;42.694;23.282;2024-01-16T08:35:14;73260.22;;;-143.21;74.49
6464;BME280;3265;42.694;23.282;2024-01-16T08:53:20;73353.44;;;-143.21;74.33
6464;BME280;3265;42.694;23.282;2024-01-16T08:55:49;73349.47;;;-143.21;74.44
6464;BME280;3265;42.694;23.282;2024-01-16T08:58:16;73337.56;;;-143.21;74.20
6464;BME280;3265;42.694;23.282;2024-01-16T09:00:43;73351.47;;;-143.21;74.22
6464;BME280;3265;42.694;23.282;2024-01-16T09:03:13;73351.47;;;-143.21;74.36
6464;BME280;3265;42.694;23.282;2024-01-16T09:08:45;73327.66;;;-143.21;73.80
6464;BME280;3265;42.694;23.282;2024-01-16T09:11:19;73331.63;;;-143.21;73.70
6464;BME280;3265;42.694;23.282;2024-01-16T09:13:47;73359.41;;;-143.21;73.55
6464;BME280;3265;42.694;23.282;2024-01-16T09:16:14;73351.47;;;-143.21;74.33
6464;BME280;3265;42.694;23.282;2024-01-16T09:18:42;73359.41;;;-143.21;74.23
6464;BME280;3265;42.694;23.282;2024-01-16T09:21:09;73349.47;;;-143.21;74.46
6464;BME280;3265;42.694;23.282;2024-01-16T09:23:37;73355.44;;;-143.21;73.73
6464;BME280;3265;42.694;23.282;2024-01-16T09:26:05;73345.50;;;-143.21;73.63
6464;BME280;3265;42.694;23.282;2024-01-16T09:28:33;73345.50;;;-143.21;73.08
6464;BME280;3265;42.694;23.282;2024-01-16T09:31:00;73327.66;;;-143.21;72.97
6464;BME280;3265;42.694;23.282;2024-01-16T09:33:30;73325.69;;;-143.21;72.14
6464;BME280;3265;42.694;23.282;2024-01-16T09:35:58;73323.69;;;-143.21;71.99
6464;BME280;3265;42.694;23.282;2024-01-16T09:38:25;73297.91;;;-143.21;71.21
6464;BME280;3265;42.694;23.282;2024-01-16T09:40:53;73287.97;;;-143.21;71.27
6464;BME280;3265;42.694;23.282;2024-01-16T09:43:26;73289.97;;;-143.21;70.57
6464;BME280;3265;42.694;23.282;2024-01-16T09:46:00;73287.97;;;-143.21;70.28
6464;BME280;3265;42.694;23.282;2024-01-16T09:48:28;73274.09;;;-143.21;70.29
6464;BME280;3265;42.694;23.282;2024-01-16T09:50:57;73264.19;;;-143.21;70.25
6464;BME280;3265;42.694;23.282;2024-01-16T09:53:26;73240.38;;;-143.21;70.05
6464;BME280;3265;42.694;23.282;2024-01-16T09:55:54;73232.44;;;-143.21;69.21
6464;BME280;3265;42.694;23.282;2024-01-16T09:58:28;73224.50;;;-143.21;68.39
6464;BME280;3265;42.694;23.282;2024-01-16T10:00:58;73214.59;;;-143.21;68.16
6464;BME280;3265;42.694;23.282;2024-01-16T10:03:26;73202.69;;;-143.21;67.34
6464;BME280;3265;42.694;23.282;2024-01-16T10:05:56;73202.69;;;-143.21;67.07
6464;BME280;3265;42.694;23.282;2024-01-16T10:08:28;73202.69;;;-143.21;66.57
6464;BME280;3265;42.694;23.282;2024-01-16T10:10:58;73212.59;;;-143.21;66.57
6464;BME280;3265;42.694;23.282;2024-01-16T10:13:27;73210.63;;;-143.21;66.98
6464;BME280;3265;42.694;23.282;2024-01-16T10:15:55;73159.03;;;-143.21;67.40
6464;BME280;3265;42.694;23.282;2024-01-16T10:18:26;73061.84;;;-143.21;65.13
6464;BME280;3265;42.694;23.282;2024-01-16T10:20:58;73105.47;;;-143.21;63.11
6464;BME280;3265;42.694;23.282;2024-01-16T10:23:25;73157.06;;;-143.21;64.34
6464;BME280;3265;42.694;23.282;2024-01-16T10:49:12;73174.91;;;-143.21;65.82
6464;BME280;3265;42.694;23.282;2024-01-16T11:13:12;73079.69;;;-143.21;64.96
6464;BME280;3265;42.694;23.282;2024-01-16T11:15:54;73077.72;;;-143.21;64.72
6464;BME280;3265;42.694;23.282;2024-01-16T11:18:58;73055.91;;;-143.21;63.94
6464;BME280;3265;42.694;23.282;2024-01-16T11:39:19;73105.47;;;-143.21;64.49
6464;BME280;3265;42.694;23.282;2024-01-16T12:04:25;73143.16;;;-143.21;65.25
6464;BME280;3265;42.694;23.282;2024-01-16T12:20:27;73131.28;;;-143.21;63.36
6464;BME280;3265;42.694;23.282;2024-01-16T12:22:59;73105.47;;;-143.21;63.20
6464;BME280;3265;42.694;23.282;2024-01-16T12:25:27;73117.38;;;-143.21;63.67
6464;BME280;3265;42.694;23.282;2024-01-16T12:27:57;73141.19;;;-143.21;63.21
6464;BME280;3265;42.694;23.282;2024-01-16T12:30:31;73145.16;;;-143.21;63.36
6464;BME280;3265;42.694;23.282;2024-01-16T12:33:06;73145.16;;;-143.21;63.57
6464;BME280;3265;42.694;23.282;2024-01-16T12:35:37;73135.25;;;-143.21;63.41
6464;BME280;3265;42.694;23.282;2024-01-16T12:38:05;73137.22;;;-143.21;63.00
6464;BME280;3265;42.694;23.282;2024-01-16T12:40:37;73147.13;;;-143.21;63.82
6464;BME280;3265;42.694;23.282;2024-01-16T12:43:06;73159.03;;;-143.21;63.16
6464;BME280;3265;42.694;23.282;2024-01-16T12:45:34;73176.91;;;-143.21;63.80
6464;BME280;3265;42.694;23.282;2024-01-16T12:48:02;73172.94;;;-143.21;64.32
6464;BME280;3265;42.694;23.282;2024-01-16T12:50:33;73165.00;;;-143.21;64.83
6464;BME280;3265;42.694;23.282;2024-01-16T12:53:05;73178.88;;;-143.21;63.80
6464;BME280;3265;42.694;23.282;2024-01-16T12:55:34;73196.72;;;-143.21;64.20
6464;BME280;3265;42.694;23.282;2024-01-16T12:58:17;73168.97;;;-143.21;64.09
6464;BME280;3265;42.694;23.282;2024-01-16T13:00:45;73153.09;;;-143.21;64.01
6464;BME280;3265;42.694;23.282;2024-01-16T13:03:20;73137.22;;;-143.21;64.22
6464;BME280;3265;42.694;23.282;2024-01-16T13:06:06;73141.19;;;-143.21;63.96
6464;BME280;3265;42.694;23.282;2024-01-16T13:08:34;73137.22;;;-143.21;62.55
6464;BME280;3265;42.694;23.282;2024-01-16T13:11:04;73153.09;;;-143.21;62.88
6464;BME280;3265;42.694;23.282;2024-01-16T13:13:38;73145.16;;;-143.21;63.34
6464;BME280;3265;42.694;23.282;2024-01-16T13:16:07;73137.22;;;-143.21;61.97
6464;BME280;3265;42.694;23.282;2024-01-16T13:18:34;73139.22;;;-143.21;61.34
6464;BME280;3265;42.694;23.282;2024-01-16T13:21:05;73149.13;;;-143.21;61.68
6464;BME280;3265;42.694;23.282;2024-01-16T13:23:34;73143.16;;;-143.21;61.82
6464;BME280;3265;42.694;23.282;2024-01-16T13:26:01;73157.06;;;-143.21;62.37
6464;BME280;3265;42.694;23.282;2024-01-16T13:28:30;73157.06;;;-143.21;62.96
6464;BME280;3265;42.694;23.282;2024-01-16T13:31:08;73149.13;;;-143.21;63.15
6464;BME280;3265;42.694;23.282;2024-01-16T13:33:35;73153.09;;;-143.21;63.57
6464;BME280;3265;42.694;23.282;2024-01-16T13:36:05;73159.03;;;-143.21;63.33
6464;BME280;3265;42.694;23.282;2024-01-16T13:41:40;73176.91;;;-143.21;64.12
6464;BME280;3265;42.694;23.282;2024-01-16T13:44:08;73178.88;;;-143.21;64.40
6464;BME280;3265;42.694;23.282;2024-01-16T13:46:43;73176.91;;;-143.21;64.52
6464;BME280;3265;42.694;23.282;2024-01-16T13:49:12;73198.72;;;-143.21;64.30
6464;BME280;3265;42.694;23.282;2024-01-16T13:51:39;73192.75;;;-143.21;63.92
6464;BME280;3265;42.694;23.282;2024-01-16T13:54:08;73206.66;;;-143.21;63.18
6464;BME280;3265;42.694;23.282;2024-01-16T13:56:50;73196.72;;;-143.21;63.18
6464;BME280;3265;42.694;23.282;2024-01-16T13:59:31;73170.94;;;-143.21;63.04
6464;BME280;3265;42.694;23.282;2024-01-16T14:01:58;73141.19;;;-143.21;61.67
6464;BME280;3265;42.694;23.282;2024-01-16T14:04:26;73141.19;;;-143.21;61.56
6464;BME280;3265;42.694;23.282;2024-01-16T14:06:53;73133.25;;;-143.21;61.14
6464;BME280;3265;42.694;23.282;2024-01-16T14:09:20;73117.38;;;-143.21;61.44
6464;BME280;3265;42.694;23.282;2024-01-16T14:11:50;73129.28;;;-143.21;60.31
6464;BME280;3265;42.694;23.282;2024-01-16T14:14:17;73143.16;;;-143.21;60.75
6464;BME280;3265;42.694;23.282;2024-01-16T14:16:44;73178.88;;;-143.21;60.54
6464;BME280;3265;42.694;23.282;2024-01-16T14:19:16;73206.66;;;-143.21;60.52
6464;BME280;3265;42.694;23.282;2024-01-16T14:21:44;73214.59;;;-143.21;61.49
6464;BME280;3265;42.694;23.282;2024-01-16T14:24:12;73240.38;;;-143.21;61.57
6464;BME280;3265;42.694;23.282;2024-01-16T14:26:42;73246.31;;;-143.21;62.04
6464;BME280;3265;42.694;23.282;2024-01-16T14:29:13;73260.22;;;-143.21;62.33
6464;BME280;3265;42.694;23.282;2024-01-16T14:31:41;73260.22;;;-143.21;62.12
6464;BME280;3265;42.694;23.282;2024-01-16T14:34:10;73256.25;;;-143.21;61.91
6464;BME280;3265;42.694;23.282;2024-01-16T14:36:42;73272.13;;;-143.21;62.36
6464;BME280;3265;42.694;23.282;2024-01-16T14:39:12;73280.03;;;-143.21;62.88
6464;BME280;3265;42.694;23.282;2024-01-16T14:41:42;73289.97;;;-143.21;63.04
6464;BME280;3265;42.694;23.282;2024-01-16T14:44:18;73280.03;;;-143.21;63.31
6464;BME280;3265;42.694;23.282;2024-01-16T14:46:47;73291.94;;;-143.21;63.73
6464;BME280;3265;42.694;23.282;2024-01-16T14:49:14;73311.78;;;-143.21;64.04
6464;BME280;3265;42.694;23.282;2024-01-16T14:51:41;73317.75;;;-143.21;64.72
6464;BME280;3265;42.694;23.282;2024-01-16T14:54:08;73321.72;;;-143.21;64.87
6464;BME280;3265;42.694;23.282;2024-01-16T14:56:35;73327.66;;;-143.21;65.63
6464;BME280;3265;42.694;23.282;2024-01-16T14:59:10;73331.63;;;-143.21;65.42
6464;BME280;3265;42.694;23.282;2024-01-16T15:01:38;73331.63;;;-143.21;65.48
6464;BME280;3265;42.694;23.282;2024-01-16T15:04:05;73333.59;;;-143.21;65.71
6464;BME280;3265;42.694;23.282;2024-01-16T15:06:33;73345.50;;;-143.21;65.96
6464;BME280;3265;42.694;23.282;2024-01-16T15:09:00;73365.34;;;-143.21;66.30
6464;BME280;3265;42.694;23.282;2024-01-16T15:11:27;73387.16;;;-143.21;66.70
6464;BME280;3265;42.694;23.282;2024-01-16T15:13:54;73401.06;;;-143.21;67.05
6464;BME280;3265;42.694;23.282;2024-01-16T15:16:28;73403.03;;;-143.21;67.08
6464;BME280;3265;42.694;23.282;2024-01-16T15:19:03;73410.97;;;-143.21;67.84
6464;BME280;3265;42.694;23.282;2024-01-16T15:21:30;73410.97;;;-143.21;67.84
6464;BME280;3265;42.694;23.282;2024-01-16T15:23:57;73409.00;;;-143.21;68.40
6464;BME280;3265;42.694;23.282;2024-01-16T15:26:24;73422.88;;;-143.21;68.53
6464;BME280;3265;42.694;23.282;2024-01-16T15:28:51;73418.91;;;-143.21;68.84
6464;BME280;3265;42.694;23.282;2024-01-16T15:31:18;73414.94;;;-143.21;69.01
6464;BME280;3265;42.694;23.282;2024-01-16T15:33:46;73412.97;;;-143.21;68.69
6464;BME280;3265;42.694;23.282;2024-01-16T15:36:15;73424.84;;;-143.21;68.29
6464;BME280;3265;42.694;23.282;2024-01-16T15:38:42;73426.84;;;-143.21;68.05
6464;BME280;3265;42.694;23.282;2024-01-16T15:41:08;73434.78;;;-143.21;68.32
6464;BME280;3265;42.694;23.282;2024-01-16T15:43:35;73442.72;;;-143.21;68.42
6464;BME280;3265;42.694;23.282;2024-01-16T15:46:03;73428.81;;;-143.21;69.02
6464;BME280;3265;42.694;23.282;2024-01-16T15:48:30;73442.72;;;-143.21;68.24
6464;BME280;3265;42.694;23.282;2024-01-16T15:50:59;73470.50;;;-143.21;69.09
6464;BME280;3265;42.694;23.282;2024-01-16T15:53:27;73496.28;;;-143.21;69.39
6464;BME280;3265;42.694;23.282;2024-01-16T15:55:54;73512.16;;;-143.21;69.85
6464;BME280;3265;42.694;23.282;2024-01-16T15:58:21;73514.13;;;-143.21;70.26
6464;BME280;3265;42.694;23.282;2024-01-16T16:00:48;73543.88;;;-143.21;71.05
6464;BME280;3265;42.694;23.282;2024-01-16T16:03:15;73569.69;;;-143.21;71.13
6464;BME280;3265;42.694;23.282;2024-01-16T16:05:42;73569.69;;;-143.21;71.35
6464;BME280;3265;42.694;23.282;2024-01-16T16:08:09;73589.53;;;-143.21;71.67
6464;BME280;3265;42.694;23.282;2024-01-16T16:10:38;73595.47;;;-143.21;71.54
6464;BME280;3265;42.694;23.282;2024-01-16T16:13:06;73581.59;;;-143.21;71.96
6464;BME280;3265;42.694;23.282;2024-01-16T16:15:34;73571.66;;;-143.21;71.29
6464;BME280;3265;42.694;23.282;2024-01-16T16:18:01;73597.47;;;-143.21;71.70
6464;BME280;3265;42.694;23.282;2024-01-16T16:20:28;73605.38;;;-143.21;71.63
6464;BME280;3265;42.694;23.282;2024-01-16T16:22:55;73613.31;;;-143.21;71.64
6464;BME280;3265;42.694;23.282;2024-01-16T16:25:22;73607.38;;;-143.21;71.67
6464;BME280;3265;42.694;23.282;2024-01-16T16:27:50;73617.28;;;-143.21;72.08
6464;BME280;3265;42.694;23.282;2024-01-16T16:30:21;73615.31;;;-143.21;72.18
6464;BME280;3265;42.694;23.282;2024-01-16T16:32:48;73597.47;;;-143.21;71.52
6464;BME280;3265;42.694;23.282;2024-01-16T16:35:15;73601.41;;;-143.21;71.64
6464;BME280;3265;42.694;23.282;2024-01-16T16:37:43;73613.31;;;-143.21;72.52
6464;BME280;3265;42.694;23.282;2024-01-16T16:40:10;73615.31;;;-143.21;72.46
6464;BME280;3265;42.694;23.282;2024-01-16T16:42:37;73607.38;;;-143.21;72.71
6464;BME280;3265;42.694;23.282;2024-01-16T16:45:07;73601.41;;;-143.21;72.81
6464;BME280;3265;42.694;23.282;2024-01-16T16:47:41;73601.41;;;-143.21;72.52
6464;BME280;3265;42.694;23.282;2024-01-16T16:50:08;73601.41;;;-143.21;72.61
6464;BME280;3265;42.694;23.282;2024-01-16T16:52:47;73603.41;;;-143.21;73.04
6464;BME280;3265;42.694;23.282;2024-01-16T16:57:44;73601.41;;;-143.21;72.74
6464;BME280;3265;42.694;23.282;2024-01-16T17:00:14;73593.50;;;-143.21;72.90
6464;BME280;3265;42.694;23.282;2024-01-16T17:02:42;73597.47;;;-143.21;72.94
6464;BME280;3265;42.694;23.282;2024-01-16T17:05:20;73591.50;;;-143.21;72.51
6464;BME280;3265;42.694;23.282;2024-01-16T17:07:56;73593.50;;;-143.21;72.73
6464;BME280;3265;42.694;23.282;2024-01-16T17:10:24;73591.50;;;-143.21;72.90
6464;BME280;3265;42.694;23.282;2024-01-16T17:13:05;73589.53;;;-143.21;73.07
6464;BME280;3265;42.694;23.282;2024-01-16T17:15:33;73587.53;;;-143.21;73.23
6464;BME280;3265;42.694;23.282;2024-01-16T17:18:20;73579.59;;;-143.21;73.46
6464;BME280;3265;42.694;23.282;2024-01-16T17:20:49;73577.63;;;-143.21;73.48
6464;BME280;3265;42.694;23.282;2024-01-16T17:23:23;73573.66;;;-143.21;72.97
6464;BME280;3265;42.694;23.282;2024-01-16T17:26:00;73585.56;;;-143.21;73.09
6464;BME280;3265;42.694;23.282;2024-01-16T17:28:28;73589.53;;;-143.21;73.30
6464;BME280;3265;42.694;23.282;2024-01-16T17:30:57;73575.63;;;-143.21;73.54
6464;BME280;3265;42.694;23.282;2024-01-16T17:33:28;73589.53;;;-143.21;73.38
6464;BME280;3265;42.694;23.282;2024-01-16T17:35:56;73599.44;;;-143.21;73.25
6464;BME280;3265;42.694;23.282;2024-01-16T17:38:31;73587.53;;;-143.21;73.59
6464;BME280;3265;42.694;23.282;2024-01-16T17:41:13;73581.59;;;-143.21;73.40
6464;BME280;3265;42.694;23.282;2024-01-16T17:43:40;73599.44;;;-143.21;73.69
6464;BME280;3265;42.694;23.282;2024-01-16T17:46:11;73593.50;;;-143.21;73.65
6464;BME280;3265;42.694;23.282;2024-01-16T17:48:38;73597.47;;;-143.21;73.80
6464;BME280;3265;42.694;23.282;2024-01-16T17:51:07;73597.47;;;-143.21;74.03
6464;BME280;3265;42.694;23.282;2024-01-16T17:53:34;73603.41;;;-143.21;74.13
6464;BME280;3265;42.694;23.282;2024-01-16T17:56:01;73605.38;;;-143.21;74.12
6464;BME280;3265;42.694;23.282;2024-01-16T17:58:28;73607.38;;;-143.21;74.07
6464;BME280;3265;42.694;23.282;2024-01-16T18:00:55;73621.25;;;-143.21;74.33
6464;BME280;3265;42.694;23.282;2024-01-16T18:03:26;73633.16;;;-143.21;74.15
6464;BME280;3265;42.694;23.282;2024-01-16T18:05:53;73643.09;;;-143.21;74.46
6464;BME280;3265;42.694;23.282;2024-01-16T18:08:21;73635.16;;;-143.21;74.41
6464;BME280;3265;42.694;23.282;2024-01-16T18:10:48;73627.22;;;-143.21;74.68
6464;BME280;3265;42.694;23.282;2024-01-16T18:13:18;73633.16;;;-143.21;74.46
6464;BME280;3265;42.694;23.282;2024-01-16T18:15:47;73629.19;;;-143.21;74.27
6464;BME280;3265;42.694;23.282;2024-01-16T18:18:14;73627.22;;;-143.21;74.72
6464;BME280;3265;42.694;23.282;2024-01-16T18:20:50;73629.19;;;-143.21;74.64
6464;BME280;3265;42.694;23.282;2024-01-16T18:23:19;73633.16;;;-143.21;75.05
6464;BME280;3265;42.694;23.282;2024-01-16T18:25:46;73637.13;;;-143.21;74.97
6464;BME280;3265;42.694;23.282;2024-01-16T18:28:20;73645.06;;;-143.21;74.95
6464;BME280;3265;42.694;23.282;2024-01-16T18:30:47;73645.06;;;-143.21;75.41
6464;BME280;3265;42.694;23.282;2024-01-16T18:33:17;73651.03;;;-143.21;75.62
6464;BME280;3265;42.694;23.282;2024-01-16T18:35:45;73647.06;;;-143.21;75.34
6464;BME280;3265;42.694;23.282;2024-01-16T18:38:12;73651.03;;;-143.21;75.33
6464;BME280;3265;42.694;23.282;2024-01-16T18:40:40;73660.94;;;-143.21;75.48
6464;BME280;3265;42.694;23.282;2024-01-16T18:43:07;73651.03;;;-143.21;75.48
6464;BME280;3265;42.694;23.282;2024-01-16T18:45:34;73656.97;;;-143.21;75.69
6464;BME280;3265;42.694;23.282;2024-01-16T18:48:02;73668.88;;;-143.21;75.39
6464;BME280;3265;42.694;23.282;2024-01-16T18:50:29;73666.88;;;-143.21;75.64
6464;BME280;3265;42.694;23.282;2024-01-16T18:53:02;73664.91;;;-143.21;75.77
6464;BME280;3265;42.694;23.282;2024-01-16T18:55:29;73674.81;;;-143.21;75.68
6464;BME280;3265;42.694;23.282;2024-01-16T18:57:56;73680.78;;;-143.21;76.03
6464;BME280;3265;42.694;23.282;2024-01-16T19:00:27;73690.69;;;-143.21;75.60
6464;BME280;3265;42.694;23.282;2024-01-16T19:02:54;73690.69;;;-143.21;75.95
6464;BME280;3265;42.694;23.282;2024-01-16T19:05:22;73686.72;;;-143.21;75.88
6464;BME280;3265;42.694;23.282;2024-01-16T19:07:49;73696.66;;;-143.21;75.64
6464;BME280;3265;42.694;23.282;2024-01-16T19:10:18;73704.59;;;-143.21;75.94
6464;BME280;3265;42.694;23.282;2024-01-16T19:12:46;73730.38;;;-143.21;76.11
6464;BME280;3265;42.694;23.282;2024-01-16T19:15:14;73736.34;;;-143.21;76.59
6464;BME280;3265;42.694;23.282;2024-01-16T19:17:44;73744.25;;;-143.21;77.22
6464;BME280;3265;42.694;23.282;2024-01-16T19:20:11;73738.31;;;-143.21;77.50
6464;BME280;3265;42.694;23.282;2024-01-16T19:22:39;73734.34;;;-143.21;77.51
6464;BME280;3265;42.694;23.282;2024-01-16T19:25:07;73728.41;;;-143.21;77.56
6464;BME280;3265;42.694;23.282;2024-01-16T19:30:49;73706.56;;;-143.21;77.13
6464;BME280;3265;42.694;23.282;2024-01-16T19:33:17;73714.50;;;-143.21;77.03
6464;BME280;3265;42.694;23.282;2024-01-16T19:35:45;73708.56;;;-143.21;77.22
6464;BME280;3265;42.694;23.282;2024-01-16T19:38:12;73720.47;;;-143.21;77.61
6464;BME280;3265;42.694;23.282;2024-01-16T19:40:39;73726.41;;;-143.21;77.38
6464;BME280;3265;42.694;23.282;2024-01-16T19:43:06;73734.34;;;-143.21;77.45
6464;BME280;3265;42.694;23.282;2024-01-16T19:45:34;73726.41;;;-143.21;77.53
6464;BME280;3265;42.694;23.282;2024-01-16T19:48:03;73714.50;;;-143.21;76.96
6464;BME280;3265;42.694;23.282;2024-01-16T19:50:31;73720.47;;;-143.21;77.04
6464;BME280;3265;42.694;23.282;2024-01-16T19:53:02;73728.41;;;-143.21;77.15
6464;BME280;3265;42.694;23.282;2024-01-16T19:55:32;73728.41;;;-143.21;76.93
6464;BME280;3265;42.694;23.282;2024-01-16T19:58:00;73734.34;;;-143.21;77.27
6464;BME280;3265;42.694;23.282;2024-01-16T20:00:29;73732.38;;;-143.21;77.20
6464;BME280;3265;42.694;23.282;2024-01-16T20:02:58;73750.22;;;-143.21;77.38
6464;BME280;3265;42.694;23.282;2024-01-16T20:05:34;73754.19;;;-143.21;77.77
6464;BME280;3265;42.694;23.282;2024-01-16T20:08:03;73756.16;;;-143.21;77.97
6464;BME280;3265;42.694;23.282;2024-01-16T20:10:32;73750.22;;;-143.21;77.76
6464;BME280;3265;42.694;23.282;2024-01-16T20:12:59;73756.16;;;-143.21;78.19
6464;BME280;3265;42.694;23.282;2024-01-16T20:15:38;73756.16;;;-143.21;78.10
6464;BME280;3265;42.694;23.282;2024-01-16T20:18:07;73756.16;;;-143.21;78.08
6464;BME280;3265;42.694;23.282;2024-01-16T20:20:35;73756.16;;;-143.21;77.81
6464;BME280;3265;42.694;23.282;2024-01-16T20:23:18;73779.97;;;-143.21;77.79
6464;BME280;3265;42.694;23.282;2024-01-16T20:26:03;73778.00;;;-143.21;78.45
6464;BME280;3265;42.694;23.282;2024-01-16T20:28:31;73783.94;;;-143.21;78.11
6464;BME280;3265;42.694;23.282;2024-01-16T20:31:01;73776.00;;;-143.21;77.52
6464;BME280;3265;42.694;23.282;2024-01-16T20:33:28;73779.97;;;-143.21;77.95
6464;BME280;3265;42.694;23.282;2024-01-16T20:36:11;73783.94;;;-143.21;77.90
6464;BME280;3265;42.694;23.282;2024-01-16T20:38:40;73799.81;;;-143.21;77.91
6464;BME280;3265;42.694;23.282;2024-01-16T20:41:09;73805.78;;;-143.21;77.87
6464;BME280;3265;42.694;23.282;2024-01-16T20:43:39;73813.72;;;-143.21;77.90
6464;BME280;3265;42.694;23.282;2024-01-16T20:46:06;73811.72;;;-143.21;78.00
6464;BME280;3265;42.694;23.282;2024-01-16T20:48:34;73811.72;;;-143.21;77.76
6464;BME280;3265;42.694;23.282;2024-01-16T20:51:06;73813.72;;;-143.21;77.75
6464;BME280;3265;42.694;23.282;2024-01-16T20:53:37;73811.72;;;-143.21;77.64
6464;BME280;3265;42.694;23.282;2024-01-16T20:56:08;73809.75;;;-143.21;77.34
6464;BME280;3265;42.694;23.282;2024-01-16T20:58:43;73817.69;;;-143.21;77.48
6464;BME280;3265;42.694;23.282;2024-01-16T21:01:11;73829.56;;;-143.21;77.64